createdAt,value
2023-07-23T00:00:05.075Z,96733.28
2023-07-23T00:02:33.068Z,96726.84
2023-07-23T00:05:01.122Z,96732.03
2023-07-23T00:07:29.353Z,96724.09
2023-07-23T00:09:57.400Z,96723.38
2023-07-23T00:12:25.442Z,96729.25
2023-07-23T00:14:53.638Z,96724.28
2023-07-23T00:17:24.706Z,96729.31
2023-07-23T00:19:55.159Z,96728.28
2023-07-23T00:22:23.247Z,96724.28
2023-07-23T00:24:51.311Z,96721.81
2023-07-23T00:27:21.945Z,96720.75
2023-07-23T00:29:49.950Z,96714.72
2023-07-23T00:32:17.953Z,96704.94
2023-07-23T00:34:46.071Z,96701.28
2023-07-23T00:37:14.110Z,96703.47
2023-07-23T00:39:42.091Z,96700.53
2023-07-23T00:42:10.411Z,96700.25
2023-07-23T00:44:41.420Z,96707.84
2023-07-23T00:47:10.235Z,96704.81
2023-07-23T00:49:38.590Z,96707.25
2023-07-23T00:52:08.686Z,96710.03
2023-07-23T00:54:37.108Z,96700.41
2023-07-23T00:57:06.910Z,96695.66
2023-07-23T00:59:35.683Z,96698.66
2023-07-23T01:02:04.037Z,96703.47
2023-07-23T01:04:34.752Z,96707.22
2023-07-23T01:07:06.555Z,96707.41
2023-07-23T01:09:38.773Z,96700.06
2023-07-23T01:12:07.487Z,96707.56
2023-07-23T01:14:35.561Z,96705.63
2023-07-23T01:17:06.995Z,96702.84
2023-07-23T01:19:37.834Z,96703.06
2023-07-23T01:22:08.884Z,96703.53
2023-07-23T01:24:37.009Z,96713.69
2023-07-23T01:27:05.500Z,96708.78
2023-07-23T01:29:33.616Z,96715.69
2023-07-23T01:32:01.642Z,96719.97
2023-07-23T01:34:32.117Z,96712.69
2023-07-23T01:37:00.531Z,96714.31
2023-07-23T01:39:28.710Z,96712.66
2023-07-23T01:42:04.532Z,96716.94
2023-07-23T01:44:32.612Z,96713.00
2023-07-23T01:47:03.030Z,96718.56
2023-07-23T01:49:31.524Z,96724.91
2023-07-23T01:52:01.917Z,96719.22
2023-07-23T01:54:29.979Z,96718.03
2023-07-23T01:56:58.210Z,96721.84
2023-07-23T01:59:26.335Z,96717.31
2023-07-23T02:01:54.414Z,96709.66
2023-07-23T02:04:22.568Z,96718.16
2023-07-23T02:06:50.672Z,96715.59
2023-07-23T02:09:18.777Z,96715.22
2023-07-23T02:11:46.890Z,96724.47
2023-07-23T02:14:14.899Z,96721.13
2023-07-23T02:16:45.957Z,96724.47
2023-07-23T02:19:17.631Z,96723.69
2023-07-23T02:21:45.651Z,96735.09
2023-07-23T02:24:13.746Z,96739.50
2023-07-23T02:26:41.935Z,96744.28
2023-07-23T02:29:10.005Z,96740.22
2023-07-23T02:31:38.096Z,96748.41
2023-07-23T02:34:08.859Z,96743.63
2023-07-23T02:36:37.324Z,96753.72
2023-07-23T02:39:05.545Z,96745.94
2023-07-23T02:41:33.682Z,96755.06
2023-07-23T02:44:05.922Z,96756.63
2023-07-23T02:46:34.676Z,96757.53
2023-07-23T02:49:02.742Z,96758.78
2023-07-23T02:51:36.278Z,96770.88
2023-07-23T02:54:04.012Z,96766.69
2023-07-23T02:56:32.034Z,96768.03
2023-07-23T02:59:00.374Z,96764.38
2023-07-23T03:01:28.776Z,96767.94
2023-07-23T03:03:56.953Z,96769.97
2023-07-23T03:06:28.054Z,96774.50
2023-07-23T03:08:56.149Z,96776.72
2023-07-23T03:11:24.194Z,96779.19
2023-07-23T03:13:52.299Z,96789.88
2023-07-23T03:16:23.403Z,96786.06
2023-07-23T03:18:51.485Z,96785.41
2023-07-23T03:21:22.443Z,96791.84
2023-07-23T03:23:52.806Z,96797.69
2023-07-23T03:26:20.849Z,96795.34
2023-07-23T03:28:48.853Z,96804.03
2023-07-23T03:31:19.265Z,96814.88
2023-07-23T03:33:47.331Z,96825.16
2023-07-23T03:36:15.389Z,96819.38
2023-07-23T03:38:46.325Z,96823.97
2023-07-23T03:41:17.287Z,96820.44
2023-07-23T03:43:47.677Z,96829.84
2023-07-23T03:46:16.026Z,96837.22
2023-07-23T03:48:49.196Z,96836.59
2023-07-23T03:51:17.538Z,96841.69
2023-07-23T03:53:45.564Z,96842.06
2023-07-23T03:56:13.653Z,96841.47
2023-07-23T03:58:41.730Z,96850.66
2023-07-23T04:01:09.798Z,96856.91
2023-07-23T04:03:43.452Z,96865.13
2023-07-23T04:06:11.486Z,96867.34
2023-07-23T04:08:39.474Z,96869.25
2023-07-23T04:11:07.586Z,96867.88
2023-07-23T04:13:38.232Z,96871.19
2023-07-23T04:16:11.600Z,96870.56
2023-07-23T04:18:53.565Z,96876.72
2023-07-23T04:21:22.388Z,96879.31
2023-07-23T04:23:51.656Z,96885.53
2023-07-23T04:26:21.124Z,96874.88
2023-07-23T04:28:51.873Z,96877.69
2023-07-23T04:31:20.802Z,96889.44
2023-07-23T04:33:49.143Z,96899.72
2023-07-23T04:36:20.413Z,96901.25
2023-07-23T04:38:48.730Z,96905.34
2023-07-23T04:41:19.112Z,96905.66
2023-07-23T04:43:47.173Z,96899.03
2023-07-23T04:46:20.411Z,96904.59
2023-07-23T04:48:48.465Z,96905.97
2023-07-23T04:51:19.488Z,96909.13
2023-07-23T04:53:47.580Z,96921.50
2023-07-23T04:56:15.597Z,96913.47
2023-07-23T04:58:43.648Z,96912.66
2023-07-23T05:01:13.110Z,96914.97
2023-07-23T05:03:41.907Z,96913.88
2023-07-23T05:06:10.051Z,96916.88
2023-07-23T05:08:38.220Z,96904.84
2023-07-23T05:11:09.139Z,96920.13
2023-07-23T05:13:40.058Z,96920.84
2023-07-23T05:16:08.170Z,96912.66
2023-07-23T05:18:39.274Z,96915.16
2023-07-23T05:21:09.711Z,96920.09
2023-07-23T05:23:37.725Z,96921.31
2023-07-23T05:26:08.069Z,96917.38
2023-07-23T05:28:36.192Z,96922.84
2023-07-23T05:31:04.261Z,96922.03
2023-07-23T05:33:32.367Z,96922.75
2023-07-23T05:36:00.955Z,96931.28
2023-07-23T05:38:28.965Z,96935.94
2023-07-23T05:41:00.061Z,96938.72
2023-07-23T05:43:30.527Z,96935.03
2023-07-23T05:46:01.289Z,96930.06
2023-07-23T05:48:29.336Z,96939.75
2023-07-23T05:50:57.457Z,96942.91
2023-07-23T05:53:25.521Z,96935.13
2023-07-23T05:55:53.562Z,96939.19
2023-07-23T05:58:21.692Z,96937.69
2023-07-23T06:00:50.139Z,96939.00
2023-07-23T06:03:18.342Z,96930.56
2023-07-23T06:05:46.576Z,96933.78
2023-07-23T06:08:14.570Z,96947.50
2023-07-23T06:10:43.583Z,96946.88
2023-07-23T06:13:11.733Z,96940.41
2023-07-23T06:15:42.756Z,96945.19
2023-07-23T06:18:13.464Z,96952.63
2023-07-23T06:20:41.511Z,96953.41
2023-07-23T06:23:09.598Z,96961.31
2023-07-23T06:25:40.574Z,96964.88
2023-07-23T06:28:08.584Z,96965.13
2023-07-23T06:30:37.270Z,96952.84
2023-07-23T06:33:05.674Z,96964.44
2023-07-23T06:35:38.709Z,96970.81
2023-07-23T06:38:06.885Z,96963.13
2023-07-23T06:40:34.927Z,96964.28
2023-07-23T06:43:03.477Z,96976.59
2023-07-23T06:45:31.521Z,96967.25
2023-07-23T06:48:02.491Z,96967.81
2023-07-23T06:50:30.636Z,96974.25
2023-07-23T06:53:00.441Z,96980.72
2023-07-23T06:55:33.257Z,96983.28
2023-07-23T06:58:01.241Z,96981.94
2023-07-23T07:00:29.369Z,96990.06
2023-07-23T07:03:00.089Z,96986.63
2023-07-23T07:05:28.177Z,96985.59
2023-07-23T07:07:56.193Z,96984.22
2023-07-23T07:10:24.545Z,96991.75
2023-07-23T07:12:55.452Z,96995.41
2023-07-23T07:15:23.456Z,97000.78
2023-07-23T07:17:51.763Z,96995.63
2023-07-23T07:20:24.849Z,96999.31
2023-07-23T07:22:55.546Z,96996.59
2023-07-23T07:25:26.395Z,96993.97
2023-07-23T07:27:57.113Z,97003.63
2023-07-23T07:30:25.219Z,96999.47
2023-07-23T07:32:56.093Z,96997.94
2023-07-23T07:35:26.843Z,97000.59
2023-07-23T07:37:54.893Z,97001.75
2023-07-23T07:40:22.952Z,97007.56
2023-07-23T07:42:54.179Z,97013.19
2023-07-23T07:45:25.010Z,97003.63
2023-07-23T07:47:53.245Z,97007.34
2023-07-23T07:50:24.212Z,97011.03
2023-07-23T07:52:52.235Z,97009.94
2023-07-23T07:55:20.304Z,97002.41
2023-07-23T07:57:48.748Z,97006.72
2023-07-23T08:00:17.165Z,97002.31
2023-07-23T08:02:45.653Z,96995.06
2023-07-23T08:05:14.523Z,96991.81
2023-07-23T08:07:45.874Z,96993.22
2023-07-23T08:10:14.568Z,96995.50
2023-07-23T08:12:43.676Z,96991.34
2023-07-23T08:15:14.259Z,96980.28
2023-07-23T08:17:42.681Z,96992.03
2023-07-23T08:20:14.100Z,96992.53
2023-07-23T08:22:42.473Z,96992.97
2023-07-23T08:25:11.264Z,96994.63
2023-07-23T08:27:39.614Z,96987.50
2023-07-23T08:30:11.763Z,96989.06
2023-07-23T08:32:43.495Z,96995.47
2023-07-23T08:35:12.306Z,96997.63
2023-07-23T08:37:40.628Z,97006.41
2023-07-23T08:40:12.894Z,97006.53
2023-07-23T08:42:56.161Z,97013.28
2023-07-23T08:46:01.184Z,97011.78
2023-07-23T08:48:56.793Z,97013.75
2023-07-23T08:51:33.386Z,97007.78
2023-07-23T08:54:04.279Z,97013.31
2023-07-23T08:56:32.330Z,97020.56
2023-07-23T08:59:06.739Z,97012.81
2023-07-23T09:01:40.043Z,97019.94
2023-07-23T09:04:14.485Z,97007.00
2023-07-23T09:06:46.538Z,97013.28
2023-07-23T09:09:15.735Z,97010.13
2023-07-23T09:11:44.101Z,97010.13
2023-07-23T09:14:14.789Z,97012.03
2023-07-23T09:16:50.531Z,97013.09
2023-07-23T09:19:27.049Z,96999.78
2023-07-23T09:21:59.232Z,97003.31
2023-07-23T09:24:33.706Z,96997.88
2023-07-23T09:27:04.095Z,96993.22
2023-07-23T09:29:39.868Z,96999.25
2023-07-23T09:32:28.236Z,97004.31
2023-07-23T09:34:57.434Z,96997.78
2023-07-23T09:37:31.688Z,97002.78
2023-07-23T09:40:00.199Z,97006.56
2023-07-23T09:42:28.337Z,97001.78
2023-07-23T09:45:04.432Z,96996.59
2023-07-23T09:47:38.733Z,96997.91
2023-07-23T09:50:07.666Z,97000.47
2023-07-23T09:52:36.721Z,97012.38
2023-07-23T09:55:05.580Z,97012.91
2023-07-23T09:57:36.204Z,97014.41
2023-07-23T10:00:05.590Z,97009.19
2023-07-23T10:02:40.441Z,97018.75
2023-07-23T10:05:09.689Z,97010.25
2023-07-23T10:07:42.726Z,97016.75
2023-07-23T10:10:14.005Z,97000.06
2023-07-23T10:12:42.523Z,97013.31
2023-07-23T10:15:13.236Z,97014.66
2023-07-23T10:17:54.402Z,97009.53
2023-07-23T10:20:25.168Z,97010.69
2023-07-23T10:22:55.737Z,97006.81
2023-07-23T10:28:04.550Z,97008.31
2023-07-23T10:30:36.425Z,97007.09
2023-07-23T10:33:13.687Z,97014.69
2023-07-23T10:35:54.329Z,97009.63
2023-07-23T10:38:36.130Z,97010.53
2023-07-23T10:41:05.243Z,97018.25
2023-07-23T10:43:43.403Z,97019.28
2023-07-23T10:46:14.029Z,97028.19
2023-07-23T10:48:48.351Z,97023.94
2023-07-23T10:51:24.030Z,97025.41
2023-07-23T10:54:05.230Z,97034.19
2023-07-23T10:56:40.959Z,97044.59
2023-07-23T10:59:11.335Z,97040.66
2023-07-23T11:01:43.741Z,97042.38
2023-07-23T11:04:29.942Z,97033.41
2023-07-23T11:07:07.201Z,97039.38
2023-07-23T11:09:38.960Z,97033.16
2023-07-23T11:12:07.760Z,97029.25
2023-07-23T11:14:38.321Z,97033.91
2023-07-23T11:17:06.908Z,97033.44
2023-07-23T11:19:35.074Z,97032.41
2023-07-23T11:22:05.942Z,97051.19
2023-07-23T11:24:36.539Z,97050.69
2023-07-23T11:27:05.678Z,97055.50
2023-07-23T11:29:35.540Z,97044.50
2023-07-23T11:32:05.036Z,97053.50
2023-07-23T11:34:35.655Z,97049.31
2023-07-23T11:37:03.664Z,97055.81
2023-07-23T11:39:31.758Z,97049.84
2023-07-23T11:41:59.919Z,97049.34
2023-07-23T11:44:31.381Z,97049.59
2023-07-23T11:47:04.062Z,97043.44
2023-07-23T11:49:34.436Z,97044.78
2023-07-23T11:52:03.437Z,97047.16
2023-07-23T11:54:34.066Z,97044.91
2023-07-23T11:57:05.242Z,97045.00
2023-07-23T11:59:35.660Z,97037.31
2023-07-23T12:02:03.740Z,97050.22
2023-07-23T12:04:40.634Z,97052.81
2023-07-23T12:07:11.288Z,97052.06
2023-07-23T12:09:42.025Z,97049.50
2023-07-23T12:12:14.246Z,97056.50
2023-07-23T12:14:44.935Z,97045.25
2023-07-23T12:17:13.865Z,97051.06
2023-07-23T12:19:44.492Z,97044.88
2023-07-23T12:22:17.806Z,97044.44
2023-07-23T12:24:45.834Z,97044.38
2023-07-23T12:27:13.893Z,97044.13
2023-07-23T12:29:44.564Z,97046.22
2023-07-23T12:32:20.390Z,97046.28
2023-07-23T12:34:53.556Z,97049.94
2023-07-23T12:37:24.549Z,97055.84
2023-07-23T12:39:52.564Z,97068.22
2023-07-23T12:42:20.619Z,97063.81
2023-07-23T12:44:49.034Z,97065.00
2023-07-23T12:47:18.242Z,97075.81
2023-07-23T12:49:46.338Z,97079.38
2023-07-23T12:52:14.445Z,97076.81
2023-07-23T12:54:42.449Z,97072.03
2023-07-23T12:57:10.661Z,97074.72
2023-07-23T12:59:38.673Z,97071.81
2023-07-23T13:02:10.218Z,97074.50
2023-07-23T13:04:45.648Z,97077.78
2023-07-23T13:07:14.017Z,97080.56
2023-07-23T13:09:42.019Z,97079.88
2023-07-23T13:12:10.302Z,97091.00
2023-07-23T13:14:40.764Z,97096.50
2023-07-23T13:17:08.780Z,97096.88
2023-07-23T13:19:36.884Z,97092.53
2023-07-23T13:22:05.932Z,97091.25
2023-07-23T13:24:34.090Z,97092.97
2023-07-23T13:27:04.061Z,97093.22
2023-07-23T13:29:34.425Z,97099.00
2023-07-23T13:32:05.471Z,97097.53
2023-07-23T13:34:33.528Z,97108.00
2023-07-23T13:37:01.788Z,97108.94
2023-07-23T13:39:29.831Z,97115.47
2023-07-23T13:42:00.227Z,97114.59
2023-07-23T13:44:29.417Z,97117.00
2023-07-23T13:46:57.547Z,97125.88
2023-07-23T13:49:27.916Z,97118.34
2023-07-23T13:51:59.123Z,97123.56
2023-07-23T13:54:27.164Z,97120.50
2023-07-23T13:56:55.217Z,97123.09
2023-07-23T13:59:26.647Z,97125.47
2023-07-23T14:01:57.593Z,97128.63
2023-07-23T14:04:26.931Z,97115.66
2023-07-23T14:06:57.292Z,97113.78
2023-07-23T14:09:25.369Z,97116.69
2023-07-23T14:11:53.492Z,97088.72
2023-07-23T14:14:24.192Z,97106.00
2023-07-23T14:16:52.190Z,97104.00
2023-07-23T14:19:20.329Z,97091.22
2023-07-23T14:21:48.379Z,97102.78
2023-07-23T14:24:18.780Z,97106.22
2023-07-23T14:26:49.608Z,97113.97
2023-07-23T14:29:17.659Z,97119.53
2023-07-23T14:31:45.676Z,97123.13
2023-07-23T14:34:17.106Z,97130.81
2023-07-23T14:36:45.190Z,97146.94
2023-07-23T14:39:13.218Z,97146.00
2023-07-23T14:41:43.600Z,97153.41
2023-07-23T14:44:11.990Z,97152.16
2023-07-23T14:46:40.105Z,97157.81
2023-07-23T14:49:08.253Z,97159.91
2023-07-23T14:51:36.273Z,97153.28
2023-07-23T14:54:06.878Z,97163.50
2023-07-23T14:56:35.068Z,97174.28
2023-07-23T14:59:03.127Z,97175.66
2023-07-23T15:01:31.370Z,97172.22
2023-07-23T15:03:59.820Z,97181.78
2023-07-23T15:06:30.776Z,97186.38
2023-07-23T15:09:01.856Z,97185.06
2023-07-23T15:11:30.625Z,97191.00
2023-07-23T15:13:59.357Z,97191.41
2023-07-23T15:16:31.134Z,97183.63
2023-07-23T15:18:59.491Z,97186.50
2023-07-23T15:21:28.055Z,97190.69
2023-07-23T15:23:59.368Z,97189.47
2023-07-23T15:26:29.462Z,97189.41
2023-07-23T15:29:04.580Z,97190.31
2023-07-23T15:31:36.510Z,97185.63
2023-07-23T15:34:07.408Z,97191.63
2023-07-23T15:36:37.832Z,97179.88
2023-07-23T15:39:08.209Z,97182.16
2023-07-23T15:41:36.212Z,97177.84
2023-07-23T15:44:04.331Z,97168.75
2023-07-23T15:46:32.294Z,97172.69
2023-07-23T15:49:00.425Z,97168.78
2023-07-23T15:51:31.922Z,97171.94
2023-07-23T15:53:59.998Z,97166.63
2023-07-23T15:56:30.649Z,97160.25
2023-07-23T15:59:01.463Z,97162.59
2023-07-23T16:01:29.797Z,97158.84
2023-07-23T16:03:57.961Z,97147.81
2023-07-23T16:06:26.402Z,97143.44
2023-07-23T16:08:54.507Z,97113.91
2023-07-23T16:11:22.681Z,97068.13
2023-07-23T16:13:51.130Z,97059.41
2023-07-23T16:16:21.785Z,97041.34
2023-07-23T16:18:49.962Z,97045.94
2023-07-23T16:21:18.008Z,97042.34
2023-07-23T16:23:48.663Z,97030.22
2023-07-23T16:26:18.595Z,97039.59
2023-07-23T16:28:47.762Z,97031.19
2023-07-23T16:31:18.568Z,97023.75
2023-07-23T16:33:49.221Z,97027.97
2023-07-23T16:36:23.259Z,97023.09
2023-07-23T16:38:54.170Z,97020.28
2023-07-23T16:41:22.476Z,97018.16
2023-07-23T16:43:52.410Z,97025.00
2023-07-23T16:46:20.620Z,97016.88
2023-07-23T16:48:48.915Z,97021.66
2023-07-23T16:51:18.079Z,97009.34
2023-07-23T16:53:46.119Z,97012.03
2023-07-23T16:56:14.233Z,97005.94
2023-07-23T16:58:42.368Z,97011.41
2023-07-23T17:01:10.460Z,97007.16
2023-07-23T17:03:38.660Z,96992.91
2023-07-23T17:06:06.826Z,96995.59
2023-07-23T17:08:35.360Z,96990.56
2023-07-23T17:11:14.650Z,96989.00
2023-07-23T17:13:42.778Z,96981.53
2023-07-23T17:16:10.838Z,96986.75
2023-07-23T17:18:39.393Z,96975.78
2023-07-23T17:21:07.377Z,96979.44
2023-07-23T17:23:35.505Z,96983.84
2023-07-23T17:26:06.211Z,96980.28
2023-07-23T17:28:34.200Z,96974.50
2023-07-23T17:31:04.546Z,96976.56
2023-07-23T17:33:32.743Z,96977.41
2023-07-23T17:36:00.814Z,96966.16
2023-07-23T17:38:28.889Z,96972.63
2023-07-23T17:40:56.959Z,96967.69
2023-07-23T17:43:25.067Z,96969.59
2023-07-23T17:45:53.345Z,96969.06
2023-07-23T17:48:21.552Z,96952.25
2023-07-23T17:50:50.086Z,96955.44
2023-07-23T17:53:18.248Z,96946.38
2023-07-23T17:55:54.518Z,96947.88
2023-07-23T17:58:22.833Z,96939.72
2023-07-23T18:00:50.914Z,96946.00
2023-07-23T18:03:21.921Z,96953.25
2023-07-23T18:05:56.227Z,96942.25
2023-07-23T18:08:27.401Z,96938.22
2023-07-23T18:10:55.934Z,96936.91
2023-07-23T18:13:24.058Z,96933.88
2023-07-23T18:15:55.486Z,96931.91
2023-07-23T18:18:23.888Z,96928.22
2023-07-23T18:20:51.957Z,96915.88
2023-07-23T18:23:19.944Z,96911.97
2023-07-23T18:25:59.065Z,96910.09
2023-07-23T18:28:36.250Z,96904.50
2023-07-23T18:31:05.056Z,96895.56
2023-07-23T18:33:36.193Z,96902.47
2023-07-23T18:36:06.581Z,96890.41
2023-07-23T18:38:37.960Z,96891.28
2023-07-23T18:41:09.315Z,96889.44
2023-07-23T18:43:37.353Z,96886.31
2023-07-23T18:46:05.363Z,96878.09
2023-07-23T18:48:33.445Z,96867.94
2023-07-23T18:51:01.476Z,96877.16
2023-07-23T18:53:31.809Z,96866.25
2023-07-23T18:55:59.793Z,96866.63
2023-07-23T18:58:27.812Z,96859.22
2023-07-23T19:00:55.868Z,96854.34
2023-07-23T19:03:26.210Z,96852.66
2023-07-23T19:05:54.211Z,96850.78
2023-07-23T19:08:22.293Z,96842.50
2023-07-23T19:10:53.219Z,96850.16
2023-07-23T19:13:24.251Z,96835.25
2023-07-23T19:15:52.327Z,96837.16
2023-07-23T19:18:23.316Z,96833.78
2023-07-23T19:20:51.845Z,96831.75
2023-07-23T19:23:19.941Z,96823.53
2023-07-23T19:25:47.973Z,96821.31
2023-07-23T19:28:16.138Z,96818.19
2023-07-23T19:30:45.760Z,96817.34
2023-07-23T19:33:13.806Z,96808.69
2023-07-23T19:35:46.117Z,96804.75
2023-07-23T19:38:14.122Z,96804.91
2023-07-23T19:40:47.406Z,96806.25
2023-07-23T19:43:15.499Z,96804.56
2023-07-23T19:45:43.582Z,96798.88
2023-07-23T19:48:11.723Z,96800.69
2023-07-23T19:50:39.771Z,96793.41
2023-07-23T19:53:07.791Z,96796.97
2023-07-23T19:55:35.893Z,96795.16
2023-07-23T19:58:03.904Z,96787.41
2023-07-23T20:00:34.883Z,96778.91
2023-07-23T20:03:05.580Z,96771.41
2023-07-23T20:05:33.705Z,96770.75
2023-07-23T20:08:02.114Z,96771.03
2023-07-23T20:10:30.200Z,96768.19
2023-07-23T20:12:58.242Z,96768.19
2023-07-23T20:15:31.353Z,96757.94
2023-07-23T20:17:59.408Z,96760.78
2023-07-23T20:20:28.664Z,96747.78
2023-07-23T20:22:57.188Z,96752.69
2023-07-23T20:25:25.409Z,96740.41
2023-07-23T20:27:56.344Z,96740.97
2023-07-23T20:30:24.599Z,96733.47
2023-07-23T20:32:55.228Z,96731.84
2023-07-23T20:35:23.785Z,96731.03
2023-07-23T20:37:52.431Z,96722.84
2023-07-23T20:40:23.404Z,96718.22
2023-07-23T20:42:57.394Z,96721.13
2023-07-23T20:45:25.423Z,96717.34
2023-07-23T20:47:53.520Z,96713.97
2023-07-23T20:50:23.483Z,96702.59
2023-07-23T20:52:51.705Z,96708.47
2023-07-23T20:55:19.711Z,96704.19
2023-07-23T20:57:47.771Z,96701.34
2023-07-23T21:00:15.894Z,96693.75
2023-07-23T21:02:44.003Z,96691.84
2023-07-23T21:05:12.419Z,96683.56
2023-07-23T21:07:41.204Z,96680.94
2023-07-23T21:10:12.246Z,96663.97
2023-07-23T21:12:40.325Z,96673.06
2023-07-23T21:15:11.626Z,96669.97
2023-07-23T21:17:39.749Z,96665.94
2023-07-23T21:20:08.777Z,96660.03
2023-07-23T21:22:42.069Z,96657.31
2023-07-23T21:25:10.254Z,96649.47
2023-07-23T21:27:38.367Z,96644.78
2023-07-23T21:30:09.854Z,96640.44
2023-07-23T21:32:37.963Z,96634.84
2023-07-23T21:35:06.631Z,96625.16
2023-07-23T21:37:37.200Z,96621.13
2023-07-23T21:40:06.798Z,96618.56
2023-07-23T21:42:34.835Z,96611.44
2023-07-23T21:45:05.647Z,96599.06
2023-07-23T21:47:33.739Z,96607.91
2023-07-23T21:50:01.808Z,96605.31
2023-07-23T21:52:29.888Z,96595.22
2023-07-23T21:54:57.914Z,96595.56
2023-07-23T21:57:28.893Z,96588.19
2023-07-23T21:59:56.961Z,96586.09
2023-07-23T22:02:25.343Z,96579.06
2023-07-23T22:04:53.541Z,96583.09
2023-07-23T22:07:21.560Z,96568.91
2023-07-23T22:09:49.596Z,96571.91
2023-07-23T22:12:21.255Z,96571.94
2023-07-23T22:14:51.646Z,96561.88
2023-07-23T22:17:22.740Z,96560.59
2023-07-23T22:19:50.778Z,96548.63
2023-07-23T22:22:19.908Z,96554.91
2023-07-23T22:24:48.882Z,96545.41
2023-07-23T22:27:19.824Z,96543.63
2023-07-23T22:29:50.407Z,96538.53
2023-07-23T22:32:20.905Z,96536.81
2023-07-23T22:34:51.266Z,96531.13
2023-07-23T22:37:20.503Z,96530.88
2023-07-23T22:39:51.545Z,96519.56
2023-07-23T22:42:22.811Z,96515.28
2023-07-23T22:44:50.981Z,96514.00
2023-07-23T22:47:22.403Z,96512.34
2023-07-23T22:49:53.803Z,96501.00
2023-07-23T22:52:21.982Z,96498.63
2023-07-23T22:54:52.442Z,96506.84
2023-07-23T22:57:22.700Z,96488.34
2023-07-23T22:59:51.165Z,96491.97
2023-07-23T23:02:19.250Z,96488.47
2023-07-23T23:04:49.636Z,96489.06
2023-07-23T23:07:17.864Z,96484.38
2023-07-23T23:09:45.857Z,96475.28
2023-07-23T23:12:13.915Z,96474.41
2023-07-23T23:14:42.042Z,96476.03
2023-07-23T23:17:10.071Z,96470.69
2023-07-23T23:19:38.046Z,96469.84
2023-07-23T23:22:06.377Z,96466.44
2023-07-23T23:24:34.423Z,96468.06
2023-07-23T23:27:02.463Z,96457.03
2023-07-23T23:29:30.566Z,96453.75
2023-07-23T23:31:58.567Z,96450.47
2023-07-23T23:34:26.821Z,96450.06
2023-07-23T23:36:54.930Z,96450.53
2023-07-23T23:39:22.912Z,96444.78
2023-07-23T23:41:53.726Z,96446.25
2023-07-23T23:44:22.573Z,96440.63
2023-07-23T23:46:50.604Z,96442.09
2023-07-23T23:49:24.000Z,96427.09
2023-07-23T23:51:51.599Z,96434.94
2023-07-23T23:54:19.600Z,96423.75
2023-07-23T23:57:01.534Z,96420.72
2023-07-23T23:59:30.655Z,96414.44
